MUC weather

Public forecast

Using degrees Celsius for public forecast. Weather courtesy of forecast.io.

Current aviation weather report (METAR) for Munich Airport

Retrieved 2020/08/15 19:20 UTC (0 seconds ago):

EDDM 151920Z 04004KT CAVOK 20/18 Q1015 NOSIG

Aviation forecast (TAF) for Munich Airport

Retrieved 2020/08/15 18:42 UTC (33 minutes ago):

TAF EDDM 151700Z 1518/1624 04005KT 9999 FEW030 BECMG 1518/1520 VRB03KT BECMG 1601/1603 2500 BCFG PROB30 TEMPO 1604/1606 0700 FG SCT001 BKN002 BECMG 1606/1609 08005KT 9999 SCT007 BKN010 BECMG 1609/1611 BKN030 BECMG 1617/1619 VRB03KT